Time;durP1;ratioP1;P1;durP2;ratioP2;P2;SDS_P1;SDS_P2;PMS_P1;PMS_P2;Temp;Humidity;BMP_temperature;BMP_pressure;BME280_temperature;BME280_humidity;BME280_pressure;Samples;Min_cycle;Max_cycle;Signal;HPM_P1;HPM_P2
2022/01/27 00:00:03;;;;;;;9.77;5.60;;;16.60;62.30;;;;;;5072017;28;20183;-77
2022/01/27 00:07:34;;;;;;;7.23;4.83;;;16.60;61.50;;;;;;5076726;28;20195;-77
2022/01/27 00:12:44;;;;;;;7.83;5.30;;;16.70;61.20;;;;;;5063889;28;20192;-75
2022/01/27 00:15:17;;;;;;;9.50;5.43;;;16.70;61.10;;;;;;5049218;28;20211;-76
2022/01/27 00:17:47;;;;;;;9.13;5.60;;;16.70;60.90;;;;;;5060985;28;20182;-76
2022/01/27 00:20:13;;;;;;;8.83;5.60;;;16.70;60.80;;;;;;5061289;28;20442;-75
2022/01/27 00:22:40;;;;;;;10.07;5.53;;;16.70;60.80;;;;;;5048538;28;20234;-77
2022/01/27 00:25:07;;;;;;;8.87;5.53;;;16.70;60.70;;;;;;5041349;28;20221;-76
2022/01/27 00:27:34;;;;;;;8.83;5.07;;;16.70;60.60;;;;;;5045677;28;20218;-76
2022/01/27 00:30:05;;;;;;;9.23;4.80;;;16.70;60.60;;;;;;5052398;28;20188;-76
2022/01/27 00:32:34;;;;;;;10.53;6.00;;;16.70;60.50;;;;;;5048183;28;20181;-76
2022/01/27 00:35:06;;;;;;;8.57;5.43;;;16.70;60.40;;;;;;5060506;28;20215;-76
2022/01/27 00:37:32;;;;;;;9.43;5.47;;;16.70;60.30;;;;;;5060560;28;20187;-76
2022/01/27 00:39:58;;;;;;;9.03;5.70;;;16.70;60.30;;;;;;5053516;28;20234;-76
2022/01/27 00:42:25;;;;;;;8.77;5.53;;;16.70;60.10;;;;;;5041812;28;20309;-77
2022/01/27 00:44:51;;;;;;;10.73;5.50;;;16.70;60.00;;;;;;5064901;28;20203;-76
2022/01/27 00:47:17;;;;;;;7.60;4.93;;;16.70;59.90;;;;;;5076633;28;20177;-76
2022/01/27 00:49:43;;;;;;;8.73;5.43;;;16.70;59.90;;;;;;5065546;28;20253;-76
2022/01/27 00:52:16;;;;;;;7.43;5.40;;;16.60;59.90;;;;;;5052475;28;20274;-76
2022/01/27 00:54:45;;;;;;;8.87;5.57;;;16.60;59.80;;;;;;5040007;28;20270;-76
2022/01/27 00:57:25;;;;;;;7.30;5.47;;;16.60;59.80;;;;;;5063648;28;20525;-76
2022/01/27 00:59:56;;;;;;;8.43;5.53;;;16.60;59.70;;;;;;5058347;28;20165;-76
2022/01/27 01:02:43;;;;;;;7.00;5.30;;;16.60;59.70;;;;;;5052575;28;20291;-77
2022/01/27 01:11:19;;;;;;;7.37;5.47;;;16.60;59.50;;;;;;5023960;28;20650;-76
2022/01/27 01:16:32;;;;;;;7.60;5.20;;;16.60;59.50;;;;;;5076311;28;20425;-77
2022/01/27 01:19:24;;;;;;;6.40;5.20;;;16.60;59.50;;;;;;5047961;28;20275;-77
2022/01/27 01:30:47;;;;;;;6.00;4.70;;;16.50;59.60;;;;;;5068991;28;20182;-76
2022/01/27 01:33:12;;;;;;;6.33;4.90;;;16.50;59.20;;;;;;5053473;28;20188;-76
2022/01/27 01:36:00;;;;;;;7.53;5.47;;;16.50;59.20;;;;;;5039666;28;20224;-76
2022/01/27 01:38:26;;;;;;;6.90;5.30;;;16.50;59.10;;;;;;5045207;28;20227;-77
2022/01/27 01:40:53;;;;;;;5.90;4.60;;;16.50;59.10;;;;;;5039607;28;20272;-76
2022/01/27 01:43:20;;;;;;;7.10;5.70;;;16.50;59.10;;;;;;5059113;28;20183;-76
2022/01/27 01:45:46;;;;;;;6.03;5.03;;;16.50;59.00;;;;;;5058704;28;20333;-76
2022/01/27 01:48:14;;;;;;;8.30;5.50;;;16.40;58.90;;;;;;5058402;28;20245;-76
2022/01/27 01:50:41;;;;;;;7.17;5.33;;;16.40;58.80;;;;;;5069211;28;20279;-76
2022/01/27 01:53:06;;;;;;;6.47;5.03;;;16.40;58.70;;;;;;5064453;28;20209;-76
2022/01/27 01:55:33;;;;;;;7.00;4.97;;;16.40;58.70;;;;;;5057335;28;20600;-77
2022/01/27 01:57:59;;;;;;;6.67;5.40;;;16.40;58.60;;;;;;5044109;28;20283;-76
2022/01/27 02:00:27;;;;;;;6.67;5.23;;;16.40;58.50;;;;;;5057653;28;20197;-76
2022/01/27 02:02:54;;;;;;;7.40;5.00;;;16.40;58.50;;;;;;5053128;28;20212;-76
2022/01/27 02:05:27;;;;;;;7.23;5.40;;;16.40;58.50;;;;;;5048942;28;20194;-76
2022/01/27 02:08:33;;;;;;;6.93;5.00;;;16.40;58.40;;;;;;5075704;28;20186;-76
2022/01/27 02:19:30;;;;;;;7.30;5.30;;;16.30;58.10;;;;;;5058217;28;20300;-76
2022/01/27 02:22:03;;;;;;;6.93;5.00;;;16.30;58.30;;;;;;5058420;28;20179;-76
2022/01/27 02:24:31;;;;;;;6.50;5.30;;;16.30;58.30;;;;;;5071403;28;20704;-75
2022/01/27 02:26:58;;;;;;;5.77;4.77;;;16.20;58.20;;;;;;5039835;28;20181;-76
2022/01/27 02:29:26;;;;;;;8.10;5.03;;;16.20;58.20;;;;;;5045145;28;20185;-76
2022/01/27 02:31:54;;;;;;;6.47;5.07;;;16.20;58.20;;;;;;5044753;28;20273;-76
2022/01/27 02:34:21;;;;;;;5.93;4.77;;;16.20;58.30;;;;;;5057214;28;20592;-76
2022/01/27 02:36:47;;;;;;;5.90;4.80;;;16.20;58.30;;;;;;5039269;28;20344;-76
2022/01/27 02:39:22;;;;;;;6.70;4.90;;;16.10;58.30;;;;;;5055538;28;20184;-76
2022/01/27 02:42:16;;;;;;;6.57;4.97;;;16.10;58.30;;;;;;5046810;28;20195;-75
2022/01/27 02:44:54;;;;;;;5.97;4.73;;;16.10;58.30;;;;;;5054708;28;20238;-76
2022/01/27 02:47:23;;;;;;;6.63;4.63;;;16.10;58.40;;;;;;5074998;28;20230;-75
2022/01/27 02:49:49;;;;;;;6.00;4.97;;;16.10;58.40;;;;;;5058909;28;20197;-75
2022/01/27 02:52:16;;;;;;;6.13;4.70;;;16.10;58.40;;;;;;5056947;28;20196;-76
2022/01/27 02:54:42;;;;;;;6.13;4.80;;;16.10;58.40;;;;;;5059985;28;20218;-76
2022/01/27 02:57:13;;;;;;;6.30;4.67;;;16.00;58.40;;;;;;5060637;28;20546;-76
2022/01/27 02:59:39;;;;;;;6.63;4.80;;;16.00;58.40;;;;;;5050304;28;20183;-75
2022/01/27 03:02:05;;;;;;;5.23;4.70;;;16.00;58.50;;;;;;5075375;28;20182;-76
2022/01/27 03:04:33;;;;;;;6.33;4.87;;;16.00;58.50;;;;;;5043730;28;20174;-76
2022/01/27 03:07:07;;;;;;;6.30;4.50;;;15.90;58.50;;;;;;5042446;28;20185;-76
2022/01/27 03:09:33;;;;;;;5.70;4.53;;;15.90;58.50;;;;;;5057413;28;20185;-76
2022/01/27 03:12:06;;;;;;;6.70;4.53;;;15.90;58.50;;;;;;5061808;28;20276;-76
2022/01/27 03:14:32;;;;;;;6.00;4.60;;;15.90;58.50;;;;;;5061052;28;20183;-76
2022/01/27 03:16:59;;;;;;;7.03;4.60;;;15.90;58.50;;;;;;5061429;28;20186;-76
2022/01/27 03:19:26;;;;;;;5.27;4.27;;;15.90;58.60;;;;;;5051546;28;20185;-77
2022/01/27 03:21:53;;;;;;;7.67;4.87;;;15.90;58.60;;;;;;5042693;28;20177;-76
2022/01/27 03:24:20;;;;;;;5.67;4.33;;;15.80;58.50;;;;;;5047010;28;20237;-76
2022/01/27 03:26:46;;;;;;;6.70;4.97;;;15.80;58.50;;;;;;5056331;28;20200;-76
2022/01/27 03:29:12;;;;;;;5.97;4.70;;;15.80;58.50;;;;;;5059424;28;20568;-76
2022/01/27 03:31:39;;;;;;;6.50;4.77;;;15.80;58.50;;;;;;5046116;28;20210;-75
2022/01/27 03:34:05;;;;;;;6.27;4.60;;;15.80;58.50;;;;;;5049106;28;20234;-76
2022/01/27 03:36:35;;;;;;;6.10;4.50;;;15.80;58.50;;;;;;5045340;28;20208;-76
2022/01/27 03:39:02;;;;;;;6.43;4.40;;;15.70;58.50;;;;;;5063114;28;20299;-76
2022/01/27 03:41:32;;;;;;;5.80;4.63;;;15.70;58.60;;;;;;5075521;28;20172;-76
2022/01/27 03:43:58;;;;;;;6.43;4.60;;;15.70;58.60;;;;;;5069376;28;20279;-76
2022/01/27 03:46:24;;;;;;;5.63;4.50;;;15.60;58.70;;;;;;5051342;28;20634;-76
2022/01/27 03:48:49;;;;;;;5.80;4.47;;;15.60;58.70;;;;;;5053915;28;20173;-76
2022/01/27 03:51:16;;;;;;;5.83;4.70;;;15.60;58.80;;;;;;5061247;28;20192;-76
2022/01/27 03:53:41;;;;;;;5.40;4.57;;;15.50;58.80;;;;;;5053412;28;20176;-75
2022/01/27 03:56:07;;;;;;;6.87;4.67;;;15.50;58.90;;;;;;5051660;28;20218;-76
2022/01/27 03:58:33;;;;;;;6.40;4.97;;;15.50;58.90;;;;;;5060740;28;20254;-76
2022/01/27 04:01:05;;;;;;;5.90;4.33;;;15.50;58.90;;;;;;5078792;28;20243;-76
2022/01/27 04:03:33;;;;;;;5.93;4.60;;;15.40;59.00;;;;;;5065439;28;20184;-76
2022/01/27 04:06:09;;;;;;;5.93;4.87;;;15.40;59.00;;;;;;5040429;28;20588;-76
2022/01/27 04:08:37;;;;;;;6.90;5.17;;;15.30;59.00;;;;;;5041857;28;20336;-76
2022/01/27 04:11:09;;;;;;;6.33;4.47;;;15.30;59.00;;;;;;5073688;28;20671;-76
2022/01/27 04:13:36;;;;;;;5.40;4.50;;;15.40;58.90;;;;;;5040470;28;20189;-76
2022/01/27 04:16:03;;;;;;;6.63;4.37;;;17.10;55.40;;;;;;5040710;28;20213;-76
2022/01/27 04:18:28;;;;;;;6.03;4.20;;;18.70;51.00;;;;;;5040758;28;20198;-76
2022/01/27 04:20:54;;;;;;;5.53;4.63;;;18.90;50.00;;;;;;5043683;28;20272;-77
2022/01/27 04:23:21;;;;;;;6.33;4.33;;;19.00;49.70;;;;;;5062852;28;20620;-77
2022/01/27 04:25:47;;;;;;;5.67;4.50;;;19.30;49.20;;;;;;5048383;28;20269;-76
2022/01/27 04:28:17;;;;;;;5.80;4.43;;;19.50;49.00;;;;;;5041500;28;20206;-76
2022/01/27 04:31:03;;;;;;;5.53;4.27;;;19.90;48.00;;;;;;5050231;28;20176;-76
2022/01/27 04:33:32;;;;;;;5.27;4.50;;;20.20;47.60;;;;;;5044687;28;20214;-76
2022/01/27 04:36:00;;;;;;;5.30;4.37;;;20.60;46.90;;;;;;5059809;28;20208;-77
2022/01/27 04:41:39;;;;;;;5.00;4.20;;;20.90;46.20;;;;;;5049858;28;20683;-77
2022/01/27 04:46:56;;;;;;;5.33;4.07;;;20.70;46.10;;;;;;5065313;28;20194;-75
2022/01/27 04:49:24;;;;;;;6.33;4.47;;;20.40;46.30;;;;;;5040906;28;20222;-76
2022/01/27 04:51:50;;;;;;;5.97;4.57;;;20.10;46.50;;;;;;5043752;28;20248;-76
2022/01/27 04:56:44;;;;;;;4.83;4.00;;;19.70;47.10;;;;;;5077118;28;20507;-76
2022/01/27 04:59:23;;;;;;;5.63;4.53;;;19.50;47.40;;;;;;5075454;28;20612;-76
2022/01/27 05:01:58;;;;;;;7.20;5.13;;;19.20;47.60;;;;;;5062382;28;20165;-76
2022/01/27 05:04:38;;;;;;;5.40;4.40;;;18.90;47.80;;;;;;5059465;28;20245;-76
2022/01/27 05:07:04;;;;;;;4.97;4.27;;;18.70;48.20;;;;;;5057257;28;20576;-76
2022/01/27 05:09:30;;;;;;;5.40;4.27;;;18.50;48.60;;;;;;5042120;28;20180;-75
2022/01/27 05:12:08;;;;;;;5.90;4.20;;;18.40;48.90;;;;;;5056590;28;20186;-76
2022/01/27 05:14:34;;;;;;;5.27;4.13;;;18.20;49.10;;;;;;5045757;28;20743;-76
2022/01/27 05:16:59;;;;;;;6.57;4.47;;;18.00;49.40;;;;;;5057076;28;20244;-76
2022/01/27 05:19:25;;;;;;;6.07;4.07;;;17.80;49.60;;;;;;5058466;28;20190;-76
2022/01/27 05:21:51;;;;;;;4.97;3.80;;;17.70;50.00;;;;;;5059227;28;20247;-77
2022/01/27 05:24:17;;;;;;;5.83;4.07;;;17.60;50.30;;;;;;5054767;28;20270;-76
2022/01/27 05:26:43;;;;;;;5.10;4.20;;;17.40;50.60;;;;;;5048381;28;20289;-77
2022/01/27 05:29:09;;;;;;;5.60;4.33;;;17.30;50.80;;;;;;5051026;28;20536;-76
2022/01/27 05:31:36;;;;;;;5.50;4.13;;;17.20;51.10;;;;;;5052791;28;20185;-76
2022/01/27 05:34:01;;;;;;;6.33;4.47;;;17.10;51.40;;;;;;5059585;28;20220;-76
2022/01/27 05:36:36;;;;;;;5.03;3.97;;;16.90;51.60;;;;;;5051596;28;20200;-77
2022/01/27 05:39:03;;;;;;;6.17;4.10;;;16.80;51.80;;;;;;5043436;28;20178;-76
2022/01/27 05:41:28;;;;;;;4.70;3.80;;;16.80;52.10;;;;;;5040054;28;20182;-76
2022/01/27 05:43:54;;;;;;;6.40;4.33;;;16.70;52.30;;;;;;5056514;28;20278;-76
2022/01/27 05:46:20;;;;;;;4.60;3.97;;;16.60;52.50;;;;;;5074525;28;20208;-76
2022/01/27 05:48:45;;;;;;;4.30;3.87;;;16.50;52.80;;;;;;5057558;28;20212;-77
2022/01/27 05:51:12;;;;;;;6.63;4.23;;;16.40;53.00;;;;;;5056050;28;20274;-75
2022/01/27 05:53:40;;;;;;;4.90;3.43;;;16.30;53.20;;;;;;5069993;28;20207;-76
2022/01/27 05:56:06;;;;;;;6.13;4.20;;;16.30;53.40;;;;;;5058332;28;20204;-76
2022/01/27 05:58:31;;;;;;;4.90;3.97;;;16.30;53.30;;;;;;5043550;28;20277;-76
2022/01/27 06:00:57;;;;;;;5.53;4.10;;;16.60;52.90;;;;;;5038876;28;20285;-76
2022/01/27 06:03:42;;;;;;;4.97;3.70;;;16.90;52.20;;;;;;5055041;28;20419;-75
2022/01/27 06:06:08;;;;;;;4.60;3.60;;;17.20;51.80;;;;;;5074752;28;20258;-76
2022/01/27 06:08:34;;;;;;;6.13;4.10;;;17.40;51.30;;;;;;5048595;28;20679;-76
2022/01/27 06:11:00;;;;;;;5.20;3.57;;;17.80;50.70;;;;;;5045898;28;20218;-77
2022/01/27 06:13:27;;;;;;;5.10;3.90;;;18.30;50.00;;;;;;5052199;28;20172;-76
2022/01/27 06:15:53;;;;;;;5.43;4.03;;;18.80;49.00;;;;;;5037568;28;20214;-76
2022/01/27 06:18:19;;;;;;;4.87;3.77;;;19.10;48.30;;;;;;5037718;28;20185;-76
2022/01/27 06:20:45;;;;;;;4.40;3.77;;;19.40;47.80;;;;;;5068297;28;20201;-76
2022/01/27 06:23:13;;;;;;;4.43;3.60;;;19.50;47.40;;;;;;5055833;28;20175;-76
2022/01/27 06:25:39;;;;;;;6.57;4.17;;;19.50;47.20;;;;;;5074110;28;20317;-76
2022/01/27 06:28:05;;;;;;;4.43;3.60;;;19.40;47.20;;;;;;5050323;28;20182;-76
2022/01/27 06:30:34;;;;;;;5.50;3.80;;;19.40;47.30;;;;;;5052245;28;20187;-76
2022/01/27 06:33:04;;;;;;;4.93;3.83;;;19.20;47.40;;;;;;5053335;28;20186;-76
2022/01/27 06:35:30;;;;;;;4.60;3.67;;;19.00;47.60;;;;;;5053034;28;20214;-76
2022/01/27 06:37:56;;;;;;;4.20;3.60;;;18.80;47.80;;;;;;5077568;28;20524;-76
2022/01/27 06:40:22;;;;;;;5.33;3.80;;;18.60;48.00;;;;;;5051291;28;20177;-78
2022/01/27 06:42:48;;;;;;;5.27;3.93;;;18.40;48.30;;;;;;5047515;28;20435;-75
2022/01/27 06:45:14;;;;;;;4.97;3.90;;;18.20;48.50;;;;;;5046656;28;20188;-76
2022/01/27 06:47:40;;;;;;;4.20;3.40;;;17.90;48.90;;;;;;5059070;28;20177;-76
2022/01/27 06:50:06;;;;;;;10.03;5.10;;;17.60;49.20;;;;;;5047629;28;20267;-76
2022/01/27 06:52:32;;;;;;;9.80;5.30;;;17.40;49.90;;;;;;5070346;28;20559;-76
2022/01/27 06:54:58;;;;;;;14.87;5.60;;;17.20;50.50;;;;;;5044462;28;20215;-76
2022/01/27 06:57:24;;;;;;;35.33;9.73;;;17.10;51.30;;;;;;5044563;28;20183;-76
2022/01/27 06:59:50;;;;;;;27.53;10.27;;;17.00;51.90;;;;;;5051703;28;20634;-76
2022/01/27 07:02:16;;;;;;;36.47;10.10;;;16.90;52.50;;;;;;5052023;28;20183;-76
2022/01/27 07:04:42;;;;;;;29.93;10.00;;;16.70;53.30;;;;;;5046605;28;20173;-76
2022/01/27 07:07:10;;;;;;;34.47;10.43;;;16.60;53.20;;;;;;5077574;28;20175;-76
2022/01/27 07:09:35;;;;;;;37.17;10.97;;;16.60;53.50;;;;;;5077902;28;20200;-76
2022/01/27 07:12:02;;;;;;;38.03;11.70;;;16.70;53.50;;;;;;5058575;28;20181;-76
2022/01/27 07:14:30;;;;;;;33.80;11.37;;;16.90;53.10;;;;;;5046378;28;20194;-76
2022/01/27 07:16:57;;;;;;;29.70;11.03;;;17.10;52.80;;;;;;5080677;28;20181;-76
2022/01/27 07:19:22;;;;;;;29.07;9.57;;;17.30;52.80;;;;;;5052572;28;20188;-76
2022/01/27 07:21:48;;;;;;;32.93;9.90;;;17.40;52.60;;;;;;5057589;28;20232;-77
2022/01/27 07:24:14;;;;;;;26.87;9.53;;;17.60;52.30;;;;;;5046612;28;20182;-77
2022/01/27 07:26:40;;;;;;;27.93;9.17;;;18.00;51.70;;;;;;5052841;28;20222;-77
2022/01/27 07:29:06;;;;;;;31.17;9.80;;;18.30;51.10;;;;;;5039311;28;20207;-77
2022/01/27 07:31:32;;;;;;;28.07;8.73;;;18.50;50.60;;;;;;5044038;28;20185;-76
2022/01/27 07:33:58;;;;;;;24.73;8.83;;;18.70;50.20;;;;;;5043445;28;20284;-76
2022/01/27 07:36:24;;;;;;;22.27;8.70;;;18.80;49.90;;;;;;5055131;28;20217;-75
2022/01/27 07:38:51;;;;;;;24.37;8.00;;;18.80;49.80;;;;;;5040721;28;20186;-76
2022/01/27 07:41:18;;;;;;;19.13;8.17;;;18.60;49.90;;;;;;5046594;28;20218;-76
2022/01/27 07:43:48;;;;;;;23.30;8.20;;;18.50;50.40;;;;;;5057334;28;20179;-76
2022/01/27 07:46:14;;;;;;;22.20;8.27;;;18.30;50.80;;;;;;5039783;28;20398;-76
2022/01/27 07:48:40;;;;;;;17.83;6.87;;;18.20;51.10;;;;;;5038477;28;20632;-77
2022/01/27 07:51:07;;;;;;;17.67;7.10;;;18.00;51.60;;;;;;5062558;28;20189;-76
2022/01/27 07:53:35;;;;;;;18.43;7.13;;;17.80;52.10;;;;;;5066874;28;20657;-76
2022/01/27 07:56:02;;;;;;;16.23;6.60;;;17.60;52.50;;;;;;5043090;28;20681;-76
2022/01/27 07:58:29;;;;;;;19.83;6.67;;;17.50;52.90;;;;;;5051983;28;20181;-76
2022/01/27 08:00:58;;;;;;;16.70;6.50;;;17.40;53.40;;;;;;5043517;28;20190;-76
2022/01/27 08:03:24;;;;;;;14.97;6.20;;;17.20;53.70;;;;;;5039491;28;20221;-76
2022/01/27 08:05:50;;;;;;;14.70;5.67;;;17.10;54.10;;;;;;5039579;28;20201;-76
2022/01/27 08:08:16;;;;;;;16.97;6.50;;;17.00;54.50;;;;;;5049338;28;20214;-75
2022/01/27 08:10:42;;;;;;;11.90;5.57;;;16.80;54.80;;;;;;5046782;28;20705;-76
2022/01/27 08:13:10;;;;;;;11.00;5.63;;;16.80;55.20;;;;;;5073317;28;20192;-76
2022/01/27 08:15:36;;;;;;;12.10;5.03;;;16.70;55.50;;;;;;5064306;28;20206;-76
2022/01/27 08:18:03;;;;;;;13.33;5.97;;;16.60;55.80;;;;;;5039417;28;20442;-76
2022/01/27 08:20:31;;;;;;;14.50;5.30;;;16.50;56.00;;;;;;5046377;28;20192;-75
2022/01/27 08:22:57;;;;;;;12.63;4.80;;;16.50;56.20;;;;;;5049047;28;20174;-76
2022/01/27 08:25:24;;;;;;;12.60;5.03;;;16.40;56.40;;;;;;5070270;28;20594;-76
2022/01/27 08:27:54;;;;;;;8.37;4.40;;;16.40;56.60;;;;;;5057839;28;20196;-75
2022/01/27 08:30:23;;;;;;;9.23;5.07;;;16.40;56.70;;;;;;5039145;28;20188;-76
2022/01/27 08:32:57;;;;;;;12.13;4.93;;;16.40;56.70;;;;;;5061544;28;20640;-76
2022/01/27 08:35:23;;;;;;;10.87;5.17;;;16.40;56.70;;;;;;5045435;28;20365;-76
2022/01/27 08:37:49;;;;;;;9.33;4.90;;;16.50;56.60;;;;;;5061444;28;20270;-76
2022/01/27 08:40:16;;;;;;;10.07;4.87;;;16.50;56.60;;;;;;5039306;28;20212;-76
2022/01/27 08:42:43;;;;;;;10.47;4.63;;;16.60;56.60;;;;;;5039133;28;20186;-76
2022/01/27 08:45:10;;;;;;;8.17;4.63;;;16.50;56.60;;;;;;5059353;28;20197;-76
2022/01/27 08:47:36;;;;;;;7.43;4.00;;;16.50;56.70;;;;;;5051352;28;20336;-76
2022/01/27 08:50:05;;;;;;;9.40;4.67;;;16.50;56.80;;;;;;5048341;28;20195;-75
2022/01/27 08:52:30;;;;;;;9.80;4.37;;;16.40;57.10;;;;;;5066128;28;20180;-77
2022/01/27 08:54:56;;;;;;;6.47;4.30;;;16.30;57.30;;;;;;5056474;28;20218;-76
2022/01/27 08:57:22;;;;;;;7.77;4.27;;;16.30;57.60;;;;;;5050284;28;20180;-76
2022/01/27 08:59:49;;;;;;;7.83;4.17;;;16.20;57.80;;;;;;5056336;28;20175;-76
2022/01/27 09:02:15;;;;;;;8.17;4.50;;;16.20;57.90;;;;;;5050585;28;20318;-76
2022/01/27 09:04:40;;;;;;;10.17;4.10;;;16.30;57.80;;;;;;5054611;28;20586;-76
2022/01/27 09:07:06;;;;;;;6.27;3.80;;;16.60;57.30;;;;;;5044309;28;20196;-76
2022/01/27 09:09:32;;;;;;;7.83;3.97;;;16.80;56.90;;;;;;5066913;28;20185;-76
2022/01/27 09:12:00;;;;;;;6.07;3.70;;;17.10;56.20;;;;;;5050531;28;20697;-76
2022/01/27 09:14:31;;;;;;;6.40;4.00;;;17.60;55.00;;;;;;5051569;28;20196;-77
2022/01/27 09:17:00;;;;;;;5.90;3.93;;;18.00;53.80;;;;;;5058128;28;20800;-76
2022/01/27 09:19:27;;;;;;;5.83;3.67;;;18.50;52.60;;;;;;5044415;28;20186;-76
2022/01/27 09:21:57;;;;;;;6.70;4.00;;;18.80;51.90;;;;;;5047591;28;20503;-76
2022/01/27 09:24:27;;;;;;;5.30;3.70;;;18.90;51.30;;;;;;5044736;28;20184;-75
2022/01/27 09:27:00;;;;;;;8.80;3.47;;;18.90;51.20;;;;;;5063764;28;20270;-75
2022/01/27 09:29:27;;;;;;;6.13;3.67;;;19.10;51.00;;;;;;5047251;28;20496;-76
2022/01/27 09:31:54;;;;;;;6.57;3.50;;;19.10;50.90;;;;;;5070813;28;20277;-77
2022/01/27 09:34:20;;;;;;;5.77;3.60;;;18.90;51.10;;;;;;5055025;28;20540;-77
2022/01/27 09:36:54;;;;;;;4.17;3.17;;;18.70;51.40;;;;;;5044959;28;20224;-75
2022/01/27 09:39:21;;;;;;;4.70;3.40;;;18.60;52.00;;;;;;5061087;28;20179;-77
2022/01/27 09:41:49;;;;;;;5.67;3.73;;;18.30;52.60;;;;;;5054910;28;20183;-76
2022/01/27 09:44:16;;;;;;;4.37;3.40;;;18.00;53.10;;;;;;5056478;28;20248;-77
2022/01/27 09:46:46;;;;;;;4.60;3.13;;;17.80;53.80;;;;;;5053075;28;20198;-78
2022/01/27 09:49:15;;;;;;;6.40;3.17;;;17.60;54.30;;;;;;5040130;28;20202;-77
2022/01/27 09:51:45;;;;;;;5.83;3.40;;;17.50;54.80;;;;;;5037732;28;20192;-77
2022/01/27 09:54:11;;;;;;;6.77;2.93;;;17.30;55.20;;;;;;5040537;28;20293;-78
2022/01/27 09:56:40;;;;;;;4.70;3.20;;;17.20;56.10;;;;;;5040339;28;20214;-78
2022/01/27 09:59:06;;;;;;;4.73;2.90;;;17.10;56.20;;;;;;5056625;28;20281;-77
2022/01/27 10:01:32;;;;;;;3.83;2.80;;;17.00;56.60;;;;;;5039412;28;20170;-77
2022/01/27 10:04:01;;;;;;;3.97;2.90;;;16.90;57.00;;;;;;5041803;28;20197;-77
2022/01/27 10:06:32;;;;;;;3.70;2.90;;;16.80;57.30;;;;;;5072096;28;20184;-77
2022/01/27 10:09:18;;;;;;;4.97;2.73;;;16.80;57.60;;;;;;5055597;28;20182;-76
2022/01/27 10:11:49;;;;;;;2.97;2.57;;;16.70;57.90;;;;;;5036648;28;20185;-78
2022/01/27 10:14:36;;;;;;;3.50;2.50;;;16.60;58.20;;;;;;5046960;28;20184;-76
2022/01/27 10:17:13;;;;;;;4.97;2.87;;;16.60;58.60;;;;;;5053558;28;20219;-77
2022/01/27 10:19:40;;;;;;;2.87;2.47;;;16.50;59.00;;;;;;5035345;28;20182;-77
2022/01/27 10:22:15;;;;;;;3.97;2.70;;;16.50;59.40;;;;;;5051349;28;20232;-76
2022/01/27 10:24:41;;;;;;;4.27;2.80;;;16.40;59.60;;;;;;5064029;28;20578;-76
2022/01/27 10:32:46;;;;;;;4.43;2.70;;;16.70;59.70;;;;;;5060890;28;20174;-77
2022/01/27 10:35:14;;;;;;;3.97;2.67;;;17.00;58.90;;;;;;5045639;28;20214;-78
2022/01/27 10:37:58;;;;;;;4.20;2.50;;;17.20;58.50;;;;;;5062761;28;20206;-78
2022/01/27 10:40:33;;;;;;;5.00;2.40;;;17.40;57.90;;;;;;5054769;28;20174;-78
2022/01/27 10:43:06;;;;;;;4.90;2.87;;;17.70;57.10;;;;;;5048104;28;20189;-78
2022/01/27 10:45:32;;;;;;;3.50;2.63;;;18.10;56.10;;;;;;5041977;28;20198;-78
2022/01/27 10:48:15;;;;;;;3.67;2.40;;;18.40;55.20;;;;;;5041556;28;20186;-78
2022/01/27 10:51:01;;;;;;;3.13;2.40;;;18.50;54.70;;;;;;5046540;28;20221;-78
2022/01/27 10:54:04;;;;;;;3.10;2.20;;;18.60;54.70;;;;;;5045126;28;20211;-78
2022/01/27 10:56:38;;;;;;;2.83;2.13;;;18.50;54.80;;;;;;5054786;28;20215;-78
2022/01/27 10:59:10;;;;;;;3.33;1.93;;;18.30;55.30;;;;;;5052637;28;20473;-78
2022/01/27 11:01:41;;;;;;;3.07;2.13;;;18.10;55.70;;;;;;5042489;28;20191;-78
2022/01/27 11:04:09;;;;;;;3.43;2.10;;;18.00;56.30;;;;;;5070360;28;20427;-77
2022/01/27 11:06:59;;;;;;;4.33;2.30;;;17.90;56.80;;;;;;5042178;28;20183;-78
2022/01/27 11:09:27;;;;;;;4.10;2.20;;;17.70;57.30;;;;;;5039451;28;20346;-76
2022/01/27 11:11:55;;;;;;;3.17;2.03;;;17.60;57.90;;;;;;5050559;28;20285;-78
2022/01/27 11:14:25;;;;;;;2.87;2.30;;;17.50;58.30;;;;;;5049349;28;20200;-78
2022/01/27 11:16:56;;;;;;;3.67;2.17;;;17.40;58.70;;;;;;5054102;28;20636;-78
2022/01/27 11:22:39;;;;;;;2.80;1.87;;;17.20;59.40;;;;;;5072371;28;20209;-78
2022/01/27 11:27:38;;;;;;;4.93;2.10;;;17.00;60.30;;;;;;5029650;28;20214;-78
2022/01/27 11:30:13;;;;;;;3.43;1.97;;;16.90;61.00;;;;;;5045364;28;20190;-77
2022/01/27 11:32:47;;;;;;;2.43;1.97;;;16.90;62.10;;;;;;5052761;28;20177;-78
2022/01/27 11:35:21;;;;;;;2.83;1.80;;;16.80;63.00;;;;;;5057078;28;20209;-77
2022/01/27 11:38:03;;;;;;;4.33;2.20;;;16.70;63.80;;;;;;5075339;28;20184;-78
2022/01/27 11:40:46;;;;;;;4.03;1.80;;;16.70;64.80;;;;;;5042255;28;20631;-77
2022/01/27 11:43:24;;;;;;;1.77;1.67;;;16.60;66.30;;;;;;5048484;28;20178;-77
2022/01/27 11:45:54;;;;;;;2.83;1.70;;;16.60;67.40;;;;;;5036044;28;20205;-77
2022/01/27 11:48:26;;;;;;;3.23;1.80;;;16.60;68.90;;;;;;5043067;28;20179;-78
2022/01/27 11:51:12;;;;;;;3.13;1.90;;;16.50;71.60;;;;;;5041932;28;20285;-78
2022/01/27 11:53:49;;;;;;;3.77;1.90;;;16.50;72.50;;;;;;5050094;28;20180;-77
2022/01/27 11:56:24;;;;;;;3.10;1.77;;;16.50;75.00;;;;;;5053450;28;20216;-78
2022/01/27 11:58:52;;;;;;;1.77;1.67;;;16.50;75.80;;;;;;5038175;28;20204;-77
2022/01/27 12:01:23;;;;;;;2.93;1.87;;;16.50;76.70;;;;;;5043001;28;20181;-78
2022/01/27 12:04:05;;;;;;;2.37;1.97;;;16.50;77.10;;;;;;5047421;28;20230;-78
2022/01/27 12:06:47;;;;;;;3.60;2.17;;;16.50;77.80;;;;;;5048524;28;20240;-78
2022/01/27 12:09:22;;;;;;;2.70;2.00;;;16.50;77.90;;;;;;5041834;28;20191;-78
2022/01/27 12:11:57;;;;;;;3.57;1.97;;;16.50;78.20;;;;;;5035446;28;20199;-78
2022/01/27 12:14:47;;;;;;;2.37;1.80;;;16.50;77.90;;;;;;5041865;28;20180;-78
2022/01/27 12:17:36;;;;;;;2.70;1.83;;;16.50;74.10;;;;;;5050859;28;20288;-77
2022/01/27 12:20:08;;;;;;;2.30;1.90;;;16.80;71.70;;;;;;5054892;28;20510;-78
2022/01/27 12:22:41;;;;;;;3.20;2.07;;;17.60;67.10;;;;;;5054246;28;20381;-78
2022/01/27 12:25:08;;;;;;;2.10;1.77;;;17.90;63.40;;;;;;5044333;28;20220;-78
2022/01/27 12:27:34;;;;;;;2.63;1.93;;;18.40;60.70;;;;;;5035901;28;20387;-77
2022/01/27 12:30:00;;;;;;;1.63;1.53;;;18.90;58.10;;;;;;5035766;28;20189;-78
2022/01/27 12:32:30;;;;;;;3.93;1.80;;;19.40;56.40;;;;;;5049383;28;20246;-78
2022/01/27 12:34:59;;;;;;;2.87;1.90;;;19.70;55.20;;;;;;5041736;28;20500;-77
2022/01/27 12:37:32;;;;;;;2.53;1.60;;;19.90;54.40;;;;;;5055655;28;20194;-77
2022/01/27 12:40:02;;;;;;;3.57;1.90;;;19.90;54.20;;;;;;5054021;28;20247;-78
2022/01/27 12:42:35;;;;;;;2.00;1.63;;;19.70;54.20;;;;;;5070281;28;20250;-78
2022/01/27 12:45:12;;;;;;;2.57;1.70;;;19.60;54.30;;;;;;5054093;28;20195;-78
2022/01/27 12:47:40;;;;;;;2.07;1.70;;;19.30;54.80;;;;;;5045875;28;20181;-78
2022/01/27 12:50:13;;;;;;;1.60;1.50;;;19.10;55.40;;;;;;5051191;28;20180;-77
2022/01/27 12:52:43;;;;;;;1.80;1.50;;;18.80;56.00;;;;;;5070732;28;20189;-78
2022/01/27 12:55:15;;;;;;;2.23;1.53;;;18.60;56.70;;;;;;5049721;28;20221;-78
2022/01/27 12:57:40;;;;;;;4.60;1.70;;;18.40;57.50;;;;;;5069376;28;20175;-76
2022/01/27 13:00:13;;;;;;;2.00;1.73;;;18.20;58.10;;;;;;5043324;28;20723;-77
2022/01/27 13:02:39;;;;;;;1.50;1.40;;;18.00;58.70;;;;;;5044153;28;20183;-77
2022/01/27 13:05:07;;;;;;;2.93;1.43;;;17.90;59.30;;;;;;5051898;28;20311;-78
2022/01/27 13:07:36;;;;;;;1.83;1.53;;;17.70;60.40;;;;;;5043869;28;20180;-77
2022/01/27 13:10:09;;;;;;;2.73;1.67;;;17.70;60.50;;;;;;5050284;28;20197;-77
2022/01/27 13:12:45;;;;;;;2.80;1.43;;;17.60;61.30;;;;;;5051876;28;20209;-76
2022/01/27 13:15:18;;;;;;;1.47;1.30;;;17.50;61.90;;;;;;5051141;28;20221;-78
2022/01/27 13:17:49;;;;;;;1.40;1.30;;;17.40;62.50;;;;;;5059771;28;20247;-77
2022/01/27 13:20:32;;;;;;;1.97;1.60;;;17.30;63.00;;;;;;5057776;28;20201;-78
2022/01/27 13:23:22;;;;;;;1.90;1.67;;;17.20;63.50;;;;;;5060924;28;20170;-77
2022/01/27 13:25:55;;;;;;;2.10;1.63;;;17.20;64.40;;;;;;5054156;28;20182;-78
2022/01/27 13:28:28;;;;;;;1.60;1.40;;;17.10;65.00;;;;;;5048082;28;20191;-77
2022/01/27 13:31:00;;;;;;;1.60;1.47;;;17.00;65.60;;;;;;5049269;28;20448;-77
2022/01/27 13:33:27;;;;;;;2.10;1.50;;;17.00;66.40;;;;;;5053111;28;20233;-77
2022/01/27 13:35:57;;;;;;;2.43;1.60;;;16.90;67.30;;;;;;5046538;28;20420;-77
2022/01/27 13:38:28;;;;;;;2.97;1.67;;;16.90;67.90;;;;;;5048598;28;20181;-77
2022/01/27 13:41:24;;;;;;;2.40;1.80;;;16.80;68.90;;;;;;5031852;28;20243;-77
2022/01/27 13:43:52;;;;;;;2.40;1.90;;;16.80;69.50;;;;;;5046937;28;20175;-77
2022/01/27 13:46:42;;;;;;;2.07;1.87;;;16.80;70.50;;;;;;5056086;28;20199;-77
2022/01/27 13:49:29;;;;;;;3.13;1.80;;;16.70;71.60;;;;;;5070135;28;20233;-77
2022/01/27 13:52:12;;;;;;;2.07;1.87;;;16.70;72.40;;;;;;5053956;28;20236;-77